sensor_id;sensor_type;location;lat;lon;timestamp;pressure;altitude;pressure_sealevel;temperature;humidity
76553;BME280;65395;53.168;18.156;2022-12-16T00:02:01;100779.91;;;-7.20;75.31
76553;BME280;65395;53.168;18.156;2022-12-16T00:04:27;100779.61;;;-7.30;75.39
76553;BME280;65395;53.168;18.156;2022-12-16T00:06:54;100781.73;;;-7.41;75.32
76553;BME280;65395;53.168;18.156;2022-12-16T00:09:21;100783.05;;;-7.52;75.13
76553;BME280;65395;53.168;18.156;2022-12-16T00:11:47;100781.23;;;-7.61;75.09
76553;BME280;65395;53.168;18.156;2022-12-16T00:14:14;100783.23;;;-7.72;75.11
76553;BME280;65395;53.168;18.156;2022-12-16T00:16:40;100782.48;;;-7.81;75.35
76553;BME280;65395;53.168;18.156;2022-12-16T00:19:07;100776.58;;;-7.86;76.02
76553;BME280;65395;53.168;18.156;2022-12-16T00:21:34;100776.04;;;-7.88;76.49
76553;BME280;65395;53.168;18.156;2022-12-16T00:24:02;100770.91;;;-7.89;76.04
76553;BME280;65395;53.168;18.156;2022-12-16T00:26:28;100775.37;;;-7.90;75.88
76553;BME280;65395;53.168;18.156;2022-12-16T00:28:57;100779.92;;;-7.89;75.65
76553;BME280;65395;53.168;18.156;2022-12-16T00:31:25;100785.40;;;-7.86;75.48
76553;BME280;65395;53.168;18.156;2022-12-16T00:33:55;100787.41;;;-7.83;75.08
76553;BME280;65395;53.168;18.156;2022-12-16T00:36:21;100788.34;;;-7.80;75.18
76553;BME280;65395;53.168;18.156;2022-12-16T00:38:50;100787.44;;;-7.81;75.01
76553;BME280;65395;53.168;18.156;2022-12-16T00:41:18;100788.33;;;-7.79;74.88
76553;BME280;65395;53.168;18.156;2022-12-16T00:43:44;100795.81;;;-7.80;74.83
76553;BME280;65395;53.168;18.156;2022-12-16T00:46:11;100801.98;;;-7.82;74.69
76553;BME280;65395;53.168;18.156;2022-12-16T00:48:38;100802.00;;;-7.88;74.60
76553;BME280;65395;53.168;18.156;2022-12-16T00:51:04;100800.13;;;-7.96;74.71
76553;BME280;65395;53.168;18.156;2022-12-16T00:53:31;100799.64;;;-8.03;74.80
76553;BME280;65395;53.168;18.156;2022-12-16T00:56:03;100798.11;;;-8.09;74.76
76553;BME280;65395;53.168;18.156;2022-12-16T00:58:30;100796.77;;;-8.17;74.90
76553;BME280;65395;53.168;18.156;2022-12-16T01:00:57;100801.89;;;-8.27;75.24
76553;BME280;65395;53.168;18.156;2022-12-16T01:03:24;100804.60;;;-8.35;75.30
76553;BME280;65395;53.168;18.156;2022-12-16T01:05:50;100808.30;;;-8.39;74.90
76553;BME280;65395;53.168;18.156;2022-12-16T01:08:17;100813.92;;;-8.44;74.97
76553;BME280;65395;53.168;18.156;2022-12-16T01:10:55;100818.17;;;-8.48;74.90
76553;BME280;65395;53.168;18.156;2022-12-16T01:13:23;100827.04;;;-8.50;74.76
76553;BME280;65395;53.168;18.156;2022-12-16T01:15:50;100836.68;;;-8.51;74.61
76553;BME280;65395;53.168;18.156;2022-12-16T01:18:18;100842.62;;;-8.53;74.53
76553;BME280;65395;53.168;18.156;2022-12-16T01:20:45;100845.18;;;-8.51;74.60
76553;BME280;65395;53.168;18.156;2022-12-16T01:23:11;100851.48;;;-8.46;74.98
76553;BME280;65395;53.168;18.156;2022-12-16T01:25:38;100857.68;;;-8.40;74.90
76553;BME280;65395;53.168;18.156;2022-12-16T01:28:05;100858.16;;;-8.35;74.72
76553;BME280;65395;53.168;18.156;2022-12-16T01:30:31;100858.58;;;-8.31;74.63
76553;BME280;65395;53.168;18.156;2022-12-16T01:32:58;100856.84;;;-8.28;74.46
76553;BME280;65395;53.168;18.156;2022-12-16T01:35:25;100854.18;;;-8.25;74.51
76553;BME280;65395;53.168;18.156;2022-12-16T01:37:52;100848.92;;;-8.27;74.55
76553;BME280;65395;53.168;18.156;2022-12-16T01:40:22;100844.45;;;-8.29;74.59
76553;BME280;65395;53.168;18.156;2022-12-16T01:42:49;100837.31;;;-8.34;74.95
76553;BME280;65395;53.168;18.156;2022-12-16T01:45:33;100834.60;;;-8.39;74.88
76553;BME280;65395;53.168;18.156;2022-12-16T01:48:15;100830.31;;;-8.44;75.02
76553;BME280;65395;53.168;18.156;2022-12-16T01:50:45;100828.73;;;-8.52;75.07
76553;BME280;65395;53.168;18.156;2022-12-16T01:53:13;100822.14;;;-8.59;75.01
76553;BME280;65395;53.168;18.156;2022-12-16T01:55:44;100824.94;;;-8.67;75.06
76553;BME280;65395;53.168;18.156;2022-12-16T01:58:17;100822.96;;;-8.74;74.99
76553;BME280;65395;53.168;18.156;2022-12-16T02:00:46;100819.05;;;-8.77;75.23
76553;BME280;65395;53.168;18.156;2022-12-16T02:03:13;100813.00;;;-8.78;75.23
76553;BME280;65395;53.168;18.156;2022-12-16T02:05:41;100809.96;;;-8.77;75.12
76553;BME280;65395;53.168;18.156;2022-12-16T02:08:12;100811.03;;;-8.72;75.18
76553;BME280;65395;53.168;18.156;2022-12-16T02:11:10;100811.88;;;-8.66;74.98
76553;BME280;65395;53.168;18.156;2022-12-16T02:14:06;100807.16;;;-8.59;74.94
76553;BME280;65395;53.168;18.156;2022-12-16T02:16:52;100805.86;;;-8.53;74.78
76553;BME280;65395;53.168;18.156;2022-12-16T02:33:55;100805.11;;;-8.76;74.13
76553;BME280;65395;53.168;18.156;2022-12-16T02:36:38;100800.05;;;-8.85;74.27
76553;BME280;65395;53.168;18.156;2022-12-16T02:39:13;100801.17;;;-8.94;74.57
76553;BME280;65395;53.168;18.156;2022-12-16T02:41:50;100799.24;;;-9.00;74.64
76553;BME280;65395;53.168;18.156;2022-12-16T02:44:19;100796.86;;;-9.03;74.61
76553;BME280;65395;53.168;18.156;2022-12-16T02:46:54;100789.20;;;-9.06;74.31
76553;BME280;65395;53.168;18.156;2022-12-16T02:49:44;100785.36;;;-9.10;74.38
76553;BME280;65395;53.168;18.156;2022-12-16T02:52:11;100791.25;;;-9.08;74.71
76553;BME280;65395;53.168;18.156;2022-12-16T02:54:39;100791.41;;;-9.06;74.57
76553;BME280;65395;53.168;18.156;2022-12-16T02:57:28;100796.27;;;-9.02;74.34
76553;BME280;65395;53.168;18.156;2022-12-16T03:00:08;100797.56;;;-8.98;74.17
76553;BME280;65395;53.168;18.156;2022-12-16T03:02:56;100797.73;;;-8.95;74.25
76553;BME280;65395;53.168;18.156;2022-12-16T03:05:32;100797.23;;;-8.90;74.06
76553;BME280;65395;53.168;18.156;2022-12-16T03:08:04;100796.45;;;-8.86;74.23
76553;BME280;65395;53.168;18.156;2022-12-16T03:10:37;100799.61;;;-8.80;74.27
76553;BME280;65395;53.168;18.156;2022-12-16T03:13:09;100797.34;;;-8.76;74.07
76553;BME280;65395;53.168;18.156;2022-12-16T03:15:38;100793.54;;;-8.76;74.13
76553;BME280;65395;53.168;18.156;2022-12-16T03:18:08;100792.10;;;-8.77;73.98
76553;BME280;65395;53.168;18.156;2022-12-16T03:20:42;100789.90;;;-8.82;74.01
76553;BME280;65395;53.168;18.156;2022-12-16T03:23:15;100786.90;;;-8.87;74.28
76553;BME280;65395;53.168;18.156;2022-12-16T03:25:44;100779.67;;;-8.93;74.37
76553;BME280;65395;53.168;18.156;2022-12-16T03:28:27;100775.89;;;-8.99;74.46
76553;BME280;65395;53.168;18.156;2022-12-16T03:31:05;100772.36;;;-9.06;74.42
76553;BME280;65395;53.168;18.156;2022-12-16T03:33:39;100771.66;;;-9.14;74.27
76553;BME280;65395;53.168;18.156;2022-12-16T03:36:12;100767.69;;;-9.20;74.45
76553;BME280;65395;53.168;18.156;2022-12-16T03:38:43;100763.54;;;-9.23;74.63
76553;BME280;65395;53.168;18.156;2022-12-16T03:41:12;100762.20;;;-9.25;74.78
76553;BME280;65395;53.168;18.156;2022-12-16T03:43:40;100763.90;;;-9.23;74.83
76553;BME280;65395;53.168;18.156;2022-12-16T03:46:08;100764.68;;;-9.19;74.62
76553;BME280;65395;53.168;18.156;2022-12-16T03:48:35;100764.09;;;-9.17;74.43
76553;BME280;65395;53.168;18.156;2022-12-16T03:51:10;100763.09;;;-9.10;74.61
76553;BME280;65395;53.168;18.156;2022-12-16T03:53:37;100760.36;;;-9.04;74.50
76553;BME280;65395;53.168;18.156;2022-12-16T03:56:04;100751.98;;;-8.97;74.46
76553;BME280;65395;53.168;18.156;2022-12-16T03:58:30;100754.17;;;-8.93;74.21
76553;BME280;65395;53.168;18.156;2022-12-16T04:00:57;100758.15;;;-8.96;74.36
76553;BME280;65395;53.168;18.156;2022-12-16T04:03:23;100756.08;;;-8.94;74.39
76553;BME280;65395;53.168;18.156;2022-12-16T04:05:52;100760.80;;;-8.92;74.38
76553;BME280;65395;53.168;18.156;2022-12-16T04:08:18;100758.67;;;-8.91;73.98
76553;BME280;65395;53.168;18.156;2022-12-16T04:10:45;100763.35;;;-8.93;74.01
76553;BME280;65395;53.168;18.156;2022-12-16T04:13:21;100763.63;;;-8.99;74.08
76553;BME280;65395;53.168;18.156;2022-12-16T04:15:58;100764.52;;;-9.08;74.04
76553;BME280;65395;53.168;18.156;2022-12-16T04:18:36;100759.69;;;-9.16;74.35
76553;BME280;65395;53.168;18.156;2022-12-16T04:21:14;100756.99;;;-9.21;74.45
76553;BME280;65395;53.168;18.156;2022-12-16T04:23:54;100757.66;;;-9.26;74.30
76553;BME280;65395;53.168;18.156;2022-12-16T04:26:32;100760.05;;;-9.31;74.21
76553;BME280;65395;53.168;18.156;2022-12-16T04:29:22;100756.45;;;-9.32;74.51
76553;BME280;65395;53.168;18.156;2022-12-16T04:31:50;100750.80;;;-9.30;74.53
76553;BME280;65395;53.168;18.156;2022-12-16T04:34:17;100744.81;;;-9.28;74.46
76553;BME280;65395;53.168;18.156;2022-12-16T04:36:55;100740.65;;;-9.24;74.50
76553;BME280;65395;53.168;18.156;2022-12-16T04:39:32;100741.01;;;-9.21;74.67
76553;BME280;65395;53.168;18.156;2022-12-16T04:42:09;100737.07;;;-9.16;74.61
76553;BME280;65395;53.168;18.156;2022-12-16T04:44:45;100743.52;;;-9.14;74.30
76553;BME280;65395;53.168;18.156;2022-12-16T04:47:22;100747.42;;;-9.09;74.35
76553;BME280;65395;53.168;18.156;2022-12-16T04:49:58;100752.09;;;-9.04;74.15
76553;BME280;65395;53.168;18.156;2022-12-16T04:52:35;100752.48;;;-9.00;74.07
76553;BME280;65395;53.168;18.156;2022-12-16T04:55:12;100754.02;;;-8.97;74.12
76553;BME280;65395;53.168;18.156;2022-12-16T04:57:57;100757.81;;;-8.92;73.95
76553;BME280;65395;53.168;18.156;2022-12-16T05:00:34;100759.73;;;-8.89;73.89
76553;BME280;65395;53.168;18.156;2022-12-16T05:03:11;100763.19;;;-8.90;74.18
76553;BME280;65395;53.168;18.156;2022-12-16T05:05:48;100766.16;;;-8.92;74.26
76553;BME280;65395;53.168;18.156;2022-12-16T05:08:24;100768.83;;;-8.97;74.26
76553;BME280;65395;53.168;18.156;2022-12-16T05:11:01;100767.15;;;-9.02;74.43
76553;BME280;65395;53.168;18.156;2022-12-16T05:13:38;100769.13;;;-9.06;75.36
76553;BME280;65395;53.168;18.156;2022-12-16T05:16:14;100769.24;;;-9.09;75.18
76553;BME280;65395;53.168;18.156;2022-12-16T05:18:51;100766.70;;;-9.16;75.09
76553;BME280;65395;53.168;18.156;2022-12-16T05:21:28;100768.86;;;-9.20;74.79
76553;BME280;65395;53.168;18.156;2022-12-16T05:24:04;100770.20;;;-9.23;74.75
76553;BME280;65395;53.168;18.156;2022-12-16T05:26:41;100770.12;;;-9.24;74.89
76553;BME280;65395;53.168;18.156;2022-12-16T05:29:18;100766.31;;;-9.20;75.54
76553;BME280;65395;53.168;18.156;2022-12-16T05:31:54;100762.70;;;-9.12;75.85
76553;BME280;65395;53.168;18.156;2022-12-16T05:34:31;100761.68;;;-8.99;76.90
76553;BME280;65395;53.168;18.156;2022-12-16T05:37:08;100759.64;;;-8.84;77.21
76553;BME280;65395;53.168;18.156;2022-12-16T05:39:54;100759.61;;;-8.66;77.09
76553;BME280;65395;53.168;18.156;2022-12-16T05:42:31;100763.63;;;-8.53;76.06
76553;BME280;65395;53.168;18.156;2022-12-16T05:45:08;100762.79;;;-8.44;76.05
76553;BME280;65395;53.168;18.156;2022-12-16T05:47:47;100763.19;;;-8.36;75.25
76553;BME280;65395;53.168;18.156;2022-12-16T05:50:24;100764.54;;;-8.33;75.03
76553;BME280;65395;53.168;18.156;2022-12-16T05:53:08;100765.72;;;-8.29;75.26
76553;BME280;65395;53.168;18.156;2022-12-16T05:55:44;100764.67;;;-8.25;75.50
76553;BME280;65395;53.168;18.156;2022-12-16T05:58:21;100764.20;;;-8.25;75.28
76553;BME280;65395;53.168;18.156;2022-12-16T06:00:58;100767.39;;;-8.25;76.54
76553;BME280;65395;53.168;18.156;2022-12-16T06:03:35;100778.42;;;-8.19;77.26
76553;BME280;65395;53.168;18.156;2022-12-16T06:06:11;100784.51;;;-8.16;77.23
76553;BME280;65395;53.168;18.156;2022-12-16T06:08:48;100786.90;;;-8.13;77.32
76553;BME280;65395;53.168;18.156;2022-12-16T06:11:25;100789.23;;;-8.09;77.55
76553;BME280;65395;53.168;18.156;2022-12-16T06:14:01;100788.88;;;-8.06;77.74
76553;BME280;65395;53.168;18.156;2022-12-16T06:16:38;100790.29;;;-8.05;77.68
76553;BME280;65395;53.168;18.156;2022-12-16T06:19:15;100805.55;;;-7.94;77.76
76553;BME280;65395;53.168;18.156;2022-12-16T06:21:51;100815.89;;;-7.86;77.48
76553;BME280;65395;53.168;18.156;2022-12-16T06:24:28;100820.48;;;-7.76;77.69
76553;BME280;65395;53.168;18.156;2022-12-16T06:27:04;100822.66;;;-7.66;77.47
76553;BME280;65395;53.168;18.156;2022-12-16T06:29:41;100827.48;;;-7.54;77.52
76553;BME280;65395;53.168;18.156;2022-12-16T06:32:18;100834.78;;;-7.39;77.31
76553;BME280;65395;53.168;18.156;2022-12-16T06:34:54;100842.86;;;-7.30;77.07
76553;BME280;65395;53.168;18.156;2022-12-16T06:37:31;100848.05;;;-7.25;76.97
76553;BME280;65395;53.168;18.156;2022-12-16T06:40:08;100857.06;;;-7.18;76.86
76553;BME280;65395;53.168;18.156;2022-12-16T06:42:45;100865.14;;;-7.13;76.91
76553;BME280;65395;53.168;18.156;2022-12-16T06:45:22;100870.25;;;-7.08;76.85
76553;BME280;65395;53.168;18.156;2022-12-16T06:47:59;100866.04;;;-7.07;76.63
76553;BME280;65395;53.168;18.156;2022-12-16T06:50:36;100868.73;;;-7.06;76.53
76553;BME280;65395;53.168;18.156;2022-12-16T06:53:13;100877.02;;;-7.11;76.45
76553;BME280;65395;53.168;18.156;2022-12-16T06:55:50;100881.92;;;-7.16;76.37
76553;BME280;65395;53.168;18.156;2022-12-16T06:58:26;100876.85;;;-7.23;76.34
76553;BME280;65395;53.168;18.156;2022-12-16T07:01:03;100873.99;;;-7.30;76.58
76553;BME280;65395;53.168;18.156;2022-12-16T07:03:40;100879.04;;;-7.35;76.54
76553;BME280;65395;53.168;18.156;2022-12-16T07:06:16;100879.56;;;-7.42;76.43
76553;BME280;65395;53.168;18.156;2022-12-16T07:08:53;100883.31;;;-7.46;76.49
76553;BME280;65395;53.168;18.156;2022-12-16T07:11:30;100869.33;;;-7.54;76.51
76553;BME280;65395;53.168;18.156;2022-12-16T07:14:07;100878.65;;;-7.45;76.60
76553;BME280;65395;53.168;18.156;2022-12-16T07:16:44;100884.41;;;-7.41;76.62
76553;BME280;65395;53.168;18.156;2022-12-16T07:19:20;100887.54;;;-7.33;76.65
76553;BME280;65395;53.168;18.156;2022-12-16T07:22:07;100884.48;;;-7.24;76.31
76553;BME280;65395;53.168;18.156;2022-12-16T07:24:43;100884.31;;;-7.12;76.49
76553;BME280;65395;53.168;18.156;2022-12-16T07:27:20;100875.88;;;-6.98;76.33
76553;BME280;65395;53.168;18.156;2022-12-16T07:29:57;100872.98;;;-6.84;76.58
76553;BME280;65395;53.168;18.156;2022-12-16T07:32:34;100876.48;;;-6.74;76.36
76553;BME280;65395;53.168;18.156;2022-12-16T07:35:10;100879.73;;;-6.64;76.52
76553;BME280;65395;53.168;18.156;2022-12-16T07:37:47;100873.11;;;-6.58;76.55
76553;BME280;65395;53.168;18.156;2022-12-16T07:40:24;100883.54;;;-6.42;76.67
76553;BME280;65395;53.168;18.156;2022-12-16T07:43:00;100886.98;;;-6.34;76.74
76553;BME280;65395;53.168;18.156;2022-12-16T07:45:37;100891.10;;;-6.28;76.76
76553;BME280;65395;53.168;18.156;2022-12-16T07:48:14;100898.47;;;-6.22;76.96
76553;BME280;65395;53.168;18.156;2022-12-16T07:50:51;100899.02;;;-6.17;76.96
76553;BME280;65395;53.168;18.156;2022-12-16T07:53:27;100906.84;;;-6.11;76.90
76553;BME280;65395;53.168;18.156;2022-12-16T07:56:05;100902.36;;;-6.08;77.05
76553;BME280;65395;53.168;18.156;2022-12-16T07:58:42;100904.75;;;-6.04;77.04
76553;BME280;65395;53.168;18.156;2022-12-16T08:01:22;100909.29;;;-6.02;77.28
76553;BME280;65395;53.168;18.156;2022-12-16T08:03:59;100905.40;;;-5.98;77.20
76553;BME280;65395;53.168;18.156;2022-12-16T08:06:36;100908.38;;;-5.94;77.19
76553;BME280;65395;53.168;18.156;2022-12-16T08:09:13;100913.26;;;-5.92;77.20
76553;BME280;65395;53.168;18.156;2022-12-16T08:11:49;100909.36;;;-5.89;77.24
76553;BME280;65395;53.168;18.156;2022-12-16T08:14:26;100913.98;;;-5.88;77.27
76553;BME280;65395;53.168;18.156;2022-12-16T08:17:03;100915.73;;;-5.85;77.38
76553;BME280;65395;53.168;18.156;2022-12-16T08:19:39;100915.70;;;-5.81;77.43
76553;BME280;65395;53.168;18.156;2022-12-16T08:22:16;100914.77;;;-5.76;77.56
76553;BME280;65395;53.168;18.156;2022-12-16T08:24:53;100914.40;;;-5.71;77.33
76553;BME280;65395;53.168;18.156;2022-12-16T08:27:29;100917.54;;;-5.63;77.52
76553;BME280;65395;53.168;18.156;2022-12-16T08:30:06;100916.61;;;-5.55;77.31
76553;BME280;65395;53.168;18.156;2022-12-16T08:32:43;100915.66;;;-5.45;77.29
76553;BME280;65395;53.168;18.156;2022-12-16T08:35:20;100912.43;;;-5.36;77.26
76553;BME280;65395;53.168;18.156;2022-12-16T08:37:57;100912.29;;;-5.29;77.16
76553;BME280;65395;53.168;18.156;2022-12-16T08:40:34;100916.31;;;-5.24;77.11
76553;BME280;65395;53.168;18.156;2022-12-16T08:43:10;100912.52;;;-5.22;77.11
76553;BME280;65395;53.168;18.156;2022-12-16T08:45:47;100911.30;;;-5.19;76.92
76553;BME280;65395;53.168;18.156;2022-12-16T08:48:24;100910.73;;;-5.17;76.87
76553;BME280;65395;53.168;18.156;2022-12-16T08:51:04;100912.15;;;-5.19;76.74
76553;BME280;65395;53.168;18.156;2022-12-16T08:53:41;100913.25;;;-5.21;76.62
76553;BME280;65395;53.168;18.156;2022-12-16T08:56:18;100909.39;;;-5.24;76.67
76553;BME280;65395;53.168;18.156;2022-12-16T08:58:54;100912.29;;;-5.29;76.74
76553;BME280;65395;53.168;18.156;2022-12-16T09:01:31;100910.52;;;-5.33;76.82
76553;BME280;65395;53.168;18.156;2022-12-16T09:04:08;100903.45;;;-5.37;76.92
76553;BME280;65395;53.168;18.156;2022-12-16T09:06:44;100905.38;;;-5.38;76.94
76553;BME280;65395;53.168;18.156;2022-12-16T09:09:21;100908.39;;;-5.39;76.99
76553;BME280;65395;53.168;18.156;2022-12-16T09:11:58;100916.66;;;-5.40;77.12
76553;BME280;65395;53.168;18.156;2022-12-16T09:14:35;100915.89;;;-5.39;77.09
76553;BME280;65395;53.168;18.156;2022-12-16T09:17:11;100915.27;;;-5.36;77.20
76553;BME280;65395;53.168;18.156;2022-12-16T09:19:48;100914.33;;;-5.36;77.28
76553;BME280;65395;53.168;18.156;2022-12-16T09:22:25;100910.88;;;-5.36;77.32
76553;BME280;65395;53.168;18.156;2022-12-16T09:25:02;100902.58;;;-5.36;77.46
76553;BME280;65395;53.168;18.156;2022-12-16T09:27:38;100904.66;;;-5.36;77.64
76553;BME280;65395;53.168;18.156;2022-12-16T09:30:15;100901.20;;;-5.38;77.80
76553;BME280;65395;53.168;18.156;2022-12-16T09:32:52;100897.98;;;-5.40;77.89
76553;BME280;65395;53.168;18.156;2022-12-16T09:35:29;100896.26;;;-5.39;78.09
76553;BME280;65395;53.168;18.156;2022-12-16T09:38:06;100896.19;;;-5.41;78.08
76553;BME280;65395;53.168;18.156;2022-12-16T09:40:43;100881.23;;;-5.44;78.05
76553;BME280;65395;53.168;18.156;2022-12-16T09:43:35;100888.48;;;-5.33;78.00
76553;BME280;65395;53.168;18.156;2022-12-16T09:46:34;100890.78;;;-5.26;78.15
76553;BME280;65395;53.168;18.156;2022-12-16T09:49:40;100885.94;;;-5.20;78.07
76553;BME280;65395;53.168;18.156;2022-12-16T09:52:20;100885.23;;;-5.14;78.13
76553;BME280;65395;53.168;18.156;2022-12-16T09:54:58;100884.83;;;-5.09;78.04
76553;BME280;65395;53.168;18.156;2022-12-16T09:57:36;100892.02;;;-5.03;77.86
76553;BME280;65395;53.168;18.156;2022-12-16T10:00:20;100895.05;;;-5.00;78.00
76553;BME280;65395;53.168;18.156;2022-12-16T10:02:58;100898.64;;;-4.96;77.92
76553;BME280;65395;53.168;18.156;2022-12-16T10:05:47;100898.02;;;-4.92;77.91
76553;BME280;65395;53.168;18.156;2022-12-16T10:08:40;100900.60;;;-4.87;77.91
76553;BME280;65395;53.168;18.156;2022-12-16T10:11:25;100894.16;;;-4.84;77.78
76553;BME280;65395;53.168;18.156;2022-12-16T10:14:12;100893.51;;;-4.77;78.00
76553;BME280;65395;53.168;18.156;2022-12-16T10:17:00;100900.15;;;-4.68;77.44
76553;BME280;65395;53.168;18.156;2022-12-16T10:19:59;100898.11;;;-4.56;77.54
76553;BME280;65395;53.168;18.156;2022-12-16T10:23:00;100895.21;;;-4.46;77.39
76553;BME280;65395;53.168;18.156;2022-12-16T10:25:59;100892.16;;;-4.40;77.30
76553;BME280;65395;53.168;18.156;2022-12-16T10:28:44;100891.50;;;-4.34;76.98
76553;BME280;65395;53.168;18.156;2022-12-16T10:31:21;100888.17;;;-4.31;76.88
76553;BME280;65395;53.168;18.156;2022-12-16T10:33:58;100888.39;;;-4.29;76.98
76553;BME280;65395;53.168;18.156;2022-12-16T10:36:36;100878.74;;;-4.32;77.00
76553;BME280;65395;53.168;18.156;2022-12-16T10:39:27;100892.92;;;-4.23;76.81
76553;BME280;65395;53.168;18.156;2022-12-16T10:42:17;100892.30;;;-4.22;76.74
76553;BME280;65395;53.168;18.156;2022-12-16T10:45:00;100891.61;;;-4.24;76.79
76553;BME280;65395;53.168;18.156;2022-12-16T10:47:37;100892.55;;;-4.26;77.03
76553;BME280;65395;53.168;18.156;2022-12-16T10:50:14;100891.71;;;-4.25;77.11
76553;BME280;65395;53.168;18.156;2022-12-16T10:53:00;100890.61;;;-4.24;76.92
76553;BME280;65395;53.168;18.156;2022-12-16T10:58:46;100896.66;;;-4.15;77.00
76553;BME280;65395;53.168;18.156;2022-12-16T11:01:28;100894.59;;;-4.09;76.53
76553;BME280;65395;53.168;18.156;2022-12-16T11:07:01;100892.60;;;-3.95;76.70
76553;BME280;65395;53.168;18.156;2022-12-16T11:09:38;100892.23;;;-3.92;76.77
76553;BME280;65395;53.168;18.156;2022-12-16T11:18:06;100884.75;;;-3.87;76.59
76553;BME280;65395;53.168;18.156;2022-12-16T11:20:44;100880.48;;;-3.92;76.38
76553;BME280;65395;53.168;18.156;2022-12-16T11:23:24;100879.91;;;-3.98;76.51
76553;BME280;65395;53.168;18.156;2022-12-16T11:26:03;100882.48;;;-4.04;76.50
76553;BME280;65395;53.168;18.156;2022-12-16T11:28:40;100885.02;;;-4.09;76.65
76553;BME280;65395;53.168;18.156;2022-12-16T11:31:17;100884.77;;;-4.13;76.58
76553;BME280;65395;53.168;18.156;2022-12-16T11:33:54;100882.98;;;-4.11;76.87
76553;BME280;65395;53.168;18.156;2022-12-16T11:36:33;100881.00;;;-4.07;76.80
76553;BME280;65395;53.168;18.156;2022-12-16T11:39:15;100872.34;;;-4.08;76.79
76553;BME280;65395;53.168;18.156;2022-12-16T11:41:54;100870.71;;;-4.07;76.76
76553;BME280;65395;53.168;18.156;2022-12-16T11:44:42;100871.70;;;-4.08;76.76
76553;BME280;65395;53.168;18.156;2022-12-16T11:47:25;100874.27;;;-4.10;76.87
76553;BME280;65395;53.168;18.156;2022-12-16T11:50:12;100875.53;;;-4.09;76.93
76553;BME280;65395;53.168;18.156;2022-12-16T11:52:59;100868.70;;;-4.15;76.86
76553;BME280;65395;53.168;18.156;2022-12-16T11:55:39;100872.66;;;-4.15;76.94
76553;BME280;65395;53.168;18.156;2022-12-16T12:01:17;100867.05;;;-4.24;77.12
76553;BME280;65395;53.168;18.156;2022-12-16T12:03:56;100869.23;;;-4.26;77.20
76553;BME280;65395;53.168;18.156;2022-12-16T12:09:35;100870.38;;;-4.28;77.23
76553;BME280;65395;53.168;18.156;2022-12-16T12:12:25;100880.32;;;-4.21;77.35
76553;BME280;65395;53.168;18.156;2022-12-16T12:21:08;100878.71;;;-4.26;77.34
76553;BME280;65395;53.168;18.156;2022-12-16T12:24:04;100878.30;;;-4.24;77.29
76553;BME280;65395;53.168;18.156;2022-12-16T12:26:56;100878.66;;;-4.24;77.45
76553;BME280;65395;53.168;18.156;2022-12-16T12:30:01;100885.15;;;-4.24;77.42
76553;BME280;65395;53.168;18.156;2022-12-16T12:32:52;100890.00;;;-4.23;77.54
76553;BME280;65395;53.168;18.156;2022-12-16T12:35:47;100891.86;;;-4.19;77.55
76553;BME280;65395;53.168;18.156;2022-12-16T12:38:41;100898.90;;;-4.12;77.48
76553;BME280;65395;53.168;18.156;2022-12-16T12:41:27;100901.94;;;-4.04;77.41
76553;BME280;65395;53.168;18.156;2022-12-16T12:44:18;100913.17;;;-4.01;77.16
76553;BME280;65395;53.168;18.156;2022-12-16T12:47:04;100920.33;;;-3.95;77.07
76553;BME280;65395;53.168;18.156;2022-12-16T12:49:53;100921.52;;;-3.90;76.99
76553;BME280;65395;53.168;18.156;2022-12-16T12:55:40;100924.81;;;-3.91;77.03
76553;BME280;65395;53.168;18.156;2022-12-16T12:58:19;100926.56;;;-3.94;76.91
76553;BME280;65395;53.168;18.156;2022-12-16T13:00:58;100928.52;;;-3.95;77.02
76553;BME280;65395;53.168;18.156;2022-12-16T13:03:55;100927.85;;;-3.95;76.98
76553;BME280;65395;53.168;18.156;2022-12-16T13:06:35;100928.52;;;-3.96;77.05
76553;BME280;65395;53.168;18.156;2022-12-16T13:09:23;100928.50;;;-4.03;77.01
76553;BME280;65395;53.168;18.156;2022-12-16T13:12:32;100932.92;;;-4.02;77.05
76553;BME280;65395;53.168;18.156;2022-12-16T13:15:20;100937.14;;;-4.02;77.10
76553;BME280;65395;53.168;18.156;2022-12-16T13:18:19;100936.16;;;-3.99;76.95
76553;BME280;65395;53.168;18.156;2022-12-16T13:20:56;100934.54;;;-3.93;76.89
76553;BME280;65395;53.168;18.156;2022-12-16T13:23:35;100938.55;;;-3.86;76.93
76553;BME280;65395;53.168;18.156;2022-12-16T13:26:16;100949.25;;;-3.82;76.94
76553;BME280;65395;53.168;18.156;2022-12-16T13:32:02;100964.71;;;-3.84;76.95
76553;BME280;65395;53.168;18.156;2022-12-16T13:34:40;100965.25;;;-3.90;76.96
76553;BME280;65395;53.168;18.156;2022-12-16T13:37:23;100962.63;;;-3.98;77.12
76553;BME280;65395;53.168;18.156;2022-12-16T13:40:12;100965.73;;;-4.05;77.29
76553;BME280;65395;53.168;18.156;2022-12-16T13:42:53;100964.26;;;-4.13;77.22
76553;BME280;65395;53.168;18.156;2022-12-16T13:45:34;100957.35;;;-4.22;77.46
76553;BME280;65395;53.168;18.156;2022-12-16T13:48:27;100976.38;;;-4.13;77.58
76553;BME280;65395;53.168;18.156;2022-12-16T13:54:11;100982.64;;;-4.06;77.36
76553;BME280;65395;53.168;18.156;2022-12-16T13:56:48;100979.67;;;-4.09;77.51
76553;BME280;65395;53.168;18.156;2022-12-16T13:59:28;100980.64;;;-4.11;77.56
76553;BME280;65395;53.168;18.156;2022-12-16T14:02:20;100982.73;;;-4.12;77.77
76553;BME280;65395;53.168;18.156;2022-12-16T14:04:59;100983.67;;;-4.12;77.76
76553;BME280;65395;53.168;18.156;2022-12-16T14:07:38;100982.94;;;-4.14;77.87
76553;BME280;65395;53.168;18.156;2022-12-16T14:10:29;100989.18;;;-4.19;77.86
76553;BME280;65395;53.168;18.156;2022-12-16T14:13:20;100992.64;;;-4.21;78.01
76553;BME280;65395;53.168;18.156;2022-12-16T14:16:29;100991.91;;;-4.16;78.10
76553;BME280;65395;53.168;18.156;2022-12-16T14:25:18;100995.27;;;-3.99;77.80
76553;BME280;65395;53.168;18.156;2022-12-16T14:27:56;100991.50;;;-3.94;77.45